Time;durP1;ratioP1;P1;durP2;ratioP2;P2;SDS_P1;SDS_P2;PMS_P1;PMS_P2;Temp;Humidity;BMP_temperature;BMP_pressure;BME280_temperature;BME280_humidity;BME280_pressure;Samples;Min_cycle;Max_cycle;Signal;HPM_P1;HPM_P2
2023/09/12 00:00:50;;;;;;;6.32;4.50;;;;;;;;;;5069976;28;20091;-79
2023/09/12 00:03:20;;;;;;;9.85;4.55;;;;;;;;;;5065896;28;20020;-78
2023/09/12 00:05:56;;;;;;;9.10;4.05;;;;;;;;;;5066418;28;20538;-78
2023/09/12 00:08:22;;;;;;;7.47;4.32;;;;;;;;;;5068711;28;20499;-78
2023/09/12 00:11:01;;;;;;;9.95;5.03;;;;;;;;;;5060628;28;20033;-79
2023/09/12 00:13:26;;;;;;;5.32;3.90;;;;;;;;;;5048210;28;20032;-78
2023/09/12 00:15:52;;;;;;;8.57;5.03;;;;;;;;;;5071177;28;20028;-79
2023/09/12 00:18:17;;;;;;;5.90;4.43;;;;;;;;;;5052974;28;20097;-79
2023/09/12 00:20:42;;;;;;;11.05;5.10;;;;;;;;;;5069022;28;20074;-78
2023/09/12 00:23:08;;;;;;;8.50;5.00;;;;;;;;;;5067025;28;20039;-78
2023/09/12 00:25:33;;;;;;;10.05;4.20;;;;;;;;;;5071739;28;20521;-79
2023/09/12 00:27:58;;;;;;;11.75;4.30;;;;;;;;;;5071451;28;20355;-78
2023/09/12 00:30:23;;;;;;;6.13;4.07;;;;;;;;;;5071103;28;20031;-79
2023/09/12 00:32:49;;;;;;;7.10;4.45;;;;;;;;;;5067973;28;20063;-78
2023/09/12 00:35:14;;;;;;;12.23;4.70;;;;;;;;;;5067667;28;20103;-78
2023/09/12 00:37:39;;;;;;;12.18;4.72;;;;;;;;;;5051003;28;20162;-78
2023/09/12 00:40:05;;;;;;;7.65;4.53;;;;;;;;;;5066196;28;20031;-79
2023/09/12 00:42:31;;;;;;;7.65;4.75;;;;;;;;;;5067758;28;20105;-78
2023/09/12 00:44:56;;;;;;;6.90;4.53;;;;;;;;;;5069273;28;20214;-79
2023/09/12 00:47:23;;;;;;;9.55;4.00;;;;;;;;;;5041443;28;20391;-79
2023/09/12 00:49:50;;;;;;;6.45;4.50;;;;;;;;;;5071073;28;20035;-79
2023/09/12 00:52:16;;;;;;;8.65;4.65;;;;;;;;;;5045023;28;20082;-79
2023/09/12 00:54:42;;;;;;;7.75;4.68;;;;;;;;;;5051420;28;20398;-78
2023/09/12 00:57:07;;;;;;;9.68;5.45;;;;;;;;;;5052608;28;20024;-78
2023/09/12 00:59:33;;;;;;;7.70;4.80;;;;;;;;;;5062551;28;20017;-79
2023/09/12 01:01:59;;;;;;;7.50;4.90;;;;;;;;;;5040044;28;21138;-79
2023/09/12 01:04:25;;;;;;;8.02;4.55;;;;;;;;;;5064747;28;20032;-79
2023/09/12 01:06:51;;;;;;;7.55;4.93;;;;;;;;;;5071873;28;20135;-79
2023/09/12 01:09:17;;;;;;;6.95;4.75;;;;;;;;;;5072588;28;20032;-79
2023/09/12 01:11:42;;;;;;;9.27;4.32;;;;;;;;;;5066041;28;20028;-80
2023/09/12 01:14:08;;;;;;;6.43;4.38;;;;;;;;;;5072189;28;20098;-79
2023/09/12 01:16:34;;;;;;;9.25;4.50;;;;;;;;;;5072921;28;20153;-79
2023/09/12 01:18:59;;;;;;;6.78;4.85;;;;;;;;;;5070189;28;20052;-79
2023/09/12 01:21:43;;;;;;;8.98;4.43;;;;;;;;;;5075278;28;20036;-79
2023/09/12 01:24:34;;;;;;;5.80;4.05;;;;;;;;;;5066986;28;20025;-79
2023/09/12 01:27:18;;;;;;;8.45;4.97;;;;;;;;;;5051302;28;20028;-79
2023/09/12 01:29:45;;;;;;;8.57;4.60;;;;;;;;;;5069695;28;20029;-79
2023/09/12 01:32:13;;;;;;;15.15;5.53;;;;;;;;;;5071137;28;20032;-79
2023/09/12 01:34:39;;;;;;;9.15;5.20;;;;;;;;;;5054374;28;20056;-79
2023/09/12 01:37:04;;;;;;;9.43;5.45;;;;;;;;;;5072430;28;20184;-79
2023/09/12 01:39:30;;;;;;;11.48;5.15;;;;;;;;;;5074132;28;20020;-79
2023/09/12 01:41:58;;;;;;;7.70;4.32;;;;;;;;;;5070601;28;20474;-79
2023/09/12 01:44:24;;;;;;;7.40;5.03;;;;;;;;;;5072457;28;20028;-79
2023/09/12 01:46:53;;;;;;;6.88;4.45;;;;;;;;;;5074228;28;20469;-79
2023/09/12 01:49:21;;;;;;;7.00;4.45;;;;;;;;;;5056080;28;20485;-80
2023/09/12 01:51:46;;;;;;;6.43;4.32;;;;;;;;;;5071472;28;20021;-79
2023/09/12 01:54:12;;;;;;;9.13;4.90;;;;;;;;;;5074182;28;20039;-79
2023/09/12 01:56:38;;;;;;;6.38;4.55;;;;;;;;;;5072334;28;20028;-79
2023/09/12 01:59:04;;;;;;;8.10;4.97;;;;;;;;;;5067612;28;20470;-79
2023/09/12 02:01:29;;;;;;;13.65;5.43;;;;;;;;;;5073559;28;20031;-79
2023/09/12 02:03:55;;;;;;;6.72;4.10;;;;;;;;;;5073597;28;20036;-79
2023/09/12 02:06:20;;;;;;;10.15;5.00;;;;;;;;;;5052766;28;20021;-79
2023/09/12 02:08:45;;;;;;;9.32;5.55;;;;;;;;;;5074794;28;20529;-79
2023/09/12 02:11:11;;;;;;;7.28;4.70;;;;;;;;;;5075451;28;20024;-79
2023/09/12 02:13:36;;;;;;;7.05;5.03;;;;;;;;;;5077143;28;20024;-79
2023/09/12 02:16:03;;;;;;;10.77;5.90;;;;;;;;;;5078293;28;20142;-79
2023/09/12 02:18:28;;;;;;;8.32;4.85;;;;;;;;;;5074541;28;20043;-78
2023/09/12 02:20:53;;;;;;;10.65;5.53;;;;;;;;;;5075591;28;20512;-79
2023/09/12 02:23:19;;;;;;;6.60;4.68;;;;;;;;;;5060501;28;20089;-79
2023/09/12 02:25:44;;;;;;;9.52;5.18;;;;;;;;;;5073590;28;20123;-79
2023/09/12 02:28:09;;;;;;;9.15;5.47;;;;;;;;;;5076995;28;20594;-79
2023/09/12 02:30:38;;;;;;;8.05;5.20;;;;;;;;;;5077085;28;20050;-80
2023/09/12 02:33:04;;;;;;;11.73;5.72;;;;;;;;;;5068978;28;20032;-80
2023/09/12 02:35:29;;;;;;;8.57;5.07;;;;;;;;;;5076814;28;20116;-79
2023/09/12 02:37:54;;;;;;;7.90;4.60;;;;;;;;;;5077461;28;20025;-79
2023/09/12 02:40:20;;;;;;;9.00;5.18;;;;;;;;;;5078098;28;20037;-80
2023/09/12 02:42:45;;;;;;;10.98;4.88;;;;;;;;;;5076050;28;20119;-79
2023/09/12 02:45:10;;;;;;;13.70;4.97;;;;;;;;;;5078053;28;20111;-80
2023/09/12 02:47:36;;;;;;;8.55;5.13;;;;;;;;;;5066727;28;20028;-79
2023/09/12 02:50:01;;;;;;;13.57;5.22;;;;;;;;;;5067866;28;20045;-79
2023/09/12 02:52:26;;;;;;;7.13;4.72;;;;;;;;;;5076174;28;20023;-80
2023/09/12 02:54:51;;;;;;;10.27;4.55;;;;;;;;;;5069890;28;20027;-79
2023/09/12 02:57:17;;;;;;;11.75;5.15;;;;;;;;;;5076996;28;20485;-80
2023/09/12 02:59:42;;;;;;;7.70;4.63;;;;;;;;;;5051970;28;20113;-80
2023/09/12 03:02:07;;;;;;;7.22;5.00;;;;;;;;;;5058384;28;20055;-79
2023/09/12 03:04:35;;;;;;;9.82;5.30;;;;;;;;;;5072404;28;20017;-79
2023/09/12 03:07:00;;;;;;;11.57;5.40;;;;;;;;;;5054412;28;20025;-79
2023/09/12 03:09:25;;;;;;;6.05;4.40;;;;;;;;;;5045809;28;20398;-79
2023/09/12 03:11:51;;;;;;;5.55;4.43;;;;;;;;;;5070923;28;20025;-80
2023/09/12 03:14:16;;;;;;;8.02;5.03;;;;;;;;;;5051868;28;20077;-80
2023/09/12 03:16:41;;;;;;;9.02;5.00;;;;;;;;;;5076756;28;20406;-79
2023/09/12 03:19:07;;;;;;;7.43;4.70;;;;;;;;;;5075452;28;20016;-79
2023/09/12 03:21:32;;;;;;;11.45;5.07;;;;;;;;;;5075199;28;20044;-79
2023/09/12 03:23:57;;;;;;;8.95;4.97;;;;;;;;;;5077619;28;20023;-80
2023/09/12 03:26:23;;;;;;;10.00;5.43;;;;;;;;;;5068550;28;20017;-79
2023/09/12 03:28:50;;;;;;;8.02;4.43;;;;;;;;;;5051287;28;20021;-80
2023/09/12 03:31:15;;;;;;;6.53;4.50;;;;;;;;;;5071762;28;20028;-80
2023/09/12 03:33:42;;;;;;;10.32;5.07;;;;;;;;;;5072773;28;20048;-79
2023/09/12 03:36:08;;;;;;;7.32;4.75;;;;;;;;;;5067703;28;20525;-80
2023/09/12 03:38:34;;;;;;;11.15;6.18;;;;;;;;;;5068290;28;20025;-80
2023/09/12 03:40:59;;;;;;;11.25;5.50;;;;;;;;;;5074398;28;20418;-79
2023/09/12 03:43:25;;;;;;;6.78;5.20;;;;;;;;;;5076756;28;20028;-79
2023/09/12 03:45:50;;;;;;;12.68;5.30;;;;;;;;;;5057696;28;20024;-79
2023/09/12 03:48:16;;;;;;;9.07;5.07;;;;;;;;;;5067305;28;20025;-79
2023/09/12 03:50:41;;;;;;;7.72;5.03;;;;;;;;;;5075533;28;20490;-79
2023/09/12 03:53:06;;;;;;;7.28;5.28;;;;;;;;;;5069892;28;20025;-80
2023/09/12 03:55:32;;;;;;;8.65;5.05;;;;;;;;;;5065946;28;20025;-79
2023/09/12 03:57:57;;;;;;;8.02;5.22;;;;;;;;;;5064716;28;20020;-79
2023/09/12 04:00:22;;;;;;;7.78;5.35;;;;;;;;;;5075229;28;20024;-79
2023/09/12 04:02:48;;;;;;;9.55;5.13;;;;;;;;;;5054824;28;20036;-80
2023/09/12 04:05:14;;;;;;;10.18;5.40;;;;;;;;;;5072279;28;20035;-80
2023/09/12 04:07:39;;;;;;;8.75;4.80;;;;;;;;;;5056482;28;20025;-80
2023/09/12 04:10:05;;;;;;;9.93;4.75;;;;;;;;;;5081152;28;20036;-79
2023/09/12 04:12:30;;;;;;;10.60;5.30;;;;;;;;;;5059760;28;20115;-79
2023/09/12 04:14:56;;;;;;;7.82;4.75;;;;;;;;;;5080403;28;20020;-79
2023/09/12 04:17:21;;;;;;;10.75;4.78;;;;;;;;;;5065076;28;20084;-80
2023/09/12 04:19:46;;;;;;;8.68;4.75;;;;;;;;;;5077901;28;20063;-80
2023/09/12 04:22:12;;;;;;;9.23;5.00;;;;;;;;;;5068542;28;20058;-79
2023/09/12 04:24:37;;;;;;;11.25;5.40;;;;;;;;;;5077907;28;20104;-79
2023/09/12 04:27:03;;;;;;;6.95;4.78;;;;;;;;;;5077426;28;20031;-79
2023/09/12 04:29:28;;;;;;;9.30;5.20;;;;;;;;;;5078413;28;20031;-79
2023/09/12 04:31:59;;;;;;;7.05;4.70;;;;;;;;;;5081296;28;20529;-79
2023/09/12 04:34:25;;;;;;;8.02;5.80;;;;;;;;;;5069527;28;20034;-79
2023/09/12 04:36:50;;;;;;;12.43;5.25;;;;;;;;;;5069427;28;20021;-79
2023/09/12 04:39:16;;;;;;;8.27;5.22;;;;;;;;;;5057873;28;20024;-79
2023/09/12 04:41:41;;;;;;;10.10;5.28;;;;;;;;;;5072765;28;20039;-80
2023/09/12 04:44:06;;;;;;;7.85;4.40;;;;;;;;;;5070434;28;20020;-79
2023/09/12 04:46:32;;;;;;;7.95;4.97;;;;;;;;;;5059558;28;20048;-79
2023/09/12 04:48:57;;;;;;;26.80;11.43;;;;;;;;;;5075563;28;20043;-80
2023/09/12 04:51:22;;;;;;;21.35;9.57;;;;;;;;;;5072458;28;20047;-79
2023/09/12 04:53:51;;;;;;;19.20;8.52;;;;;;;;;;5063090;28;20078;-79
2023/09/12 04:56:17;;;;;;;13.23;6.43;;;;;;;;;;5054884;28;20098;-80
2023/09/12 04:58:42;;;;;;;11.52;5.20;;;;;;;;;;5070279;28;20642;-79
2023/09/12 05:01:08;;;;;;;7.78;4.68;;;;;;;;;;5049226;28;20560;-79
2023/09/12 05:03:33;;;;;;;6.45;4.53;;;;;;;;;;5066256;28;20027;-79
2023/09/12 05:05:59;;;;;;;7.88;5.07;;;;;;;;;;5071156;28;20101;-80
2023/09/12 05:08:24;;;;;;;9.27;5.18;;;;;;;;;;5066209;28;20099;-83
2023/09/12 05:10:50;;;;;;;10.48;5.15;;;;;;;;;;5072786;28;20108;-79
2023/09/12 05:13:15;;;;;;;7.30;4.88;;;;;;;;;;5066874;28;20104;-81
2023/09/12 05:15:41;;;;;;;8.82;4.78;;;;;;;;;;5067929;28;20029;-81
2023/09/12 05:18:07;;;;;;;7.80;4.47;;;;;;;;;;5071693;28;20030;-81
2023/09/12 05:20:33;;;;;;;9.40;4.93;;;;;;;;;;5068590;28;20048;-86
2023/09/12 05:22:58;;;;;;;7.88;4.53;;;;;;;;;;5052504;28;20074;-82
2023/09/12 05:25:23;;;;;;;10.13;4.63;;;;;;;;;;5070148;28;20043;-81
2023/09/12 05:27:49;;;;;;;10.15;4.43;;;;;;;;;;5073313;28;20079;-81
2023/09/12 05:30:14;;;;;;;8.25;4.85;;;;;;;;;;5063421;28;20029;-81
2023/09/12 05:32:41;;;;;;;7.40;4.50;;;;;;;;;;5045240;28;20017;-81
2023/09/12 05:35:07;;;;;;;6.90;4.45;;;;;;;;;;5054582;28;20067;-81
2023/09/12 05:37:32;;;;;;;7.05;4.25;;;;;;;;;;5064889;28;20086;-85
2023/09/12 05:39:57;;;;;;;6.35;4.47;;;;;;;;;;5072625;28;20489;-78
2023/09/12 05:42:23;;;;;;;9.63;4.60;;;;;;;;;;5062283;28;20036;-78
2023/09/12 05:44:49;;;;;;;5.65;4.10;;;;;;;;;;5071280;28;20074;-78
2023/09/12 05:47:15;;;;;;;7.32;4.93;;;;;;;;;;5069456;28;20020;-78
2023/09/12 05:49:40;;;;;;;9.68;4.18;;;;;;;;;;5068180;28;20130;-78
2023/09/12 05:52:05;;;;;;;6.90;4.97;;;;;;;;;;5060818;28;20024;-78
2023/09/12 05:54:31;;;;;;;7.90;4.75;;;;;;;;;;5062125;28;20583;-78
2023/09/12 05:56:56;;;;;;;5.80;4.30;;;;;;;;;;5059266;28;20087;-78
2023/09/12 05:59:22;;;;;;;7.93;4.65;;;;;;;;;;5046807;28;20020;-78
2023/09/12 06:01:48;;;;;;;13.60;5.10;;;;;;;;;;5062459;28;20632;-78
2023/09/12 06:04:14;;;;;;;7.75;4.40;;;;;;;;;;5065802;28;20025;-78
2023/09/12 06:06:39;;;;;;;6.85;4.85;;;;;;;;;;5063864;28;20024;-78
2023/09/12 06:09:05;;;;;;;6.88;4.55;;;;;;;;;;5049341;28;20041;-78
2023/09/12 06:11:31;;;;;;;9.75;3.97;;;;;;;;;;5068528;28;20120;-78
2023/09/12 06:13:56;;;;;;;7.03;4.60;;;;;;;;;;5068985;28;20033;-78
2023/09/12 06:16:22;;;;;;;6.72;4.25;;;;;;;;;;5062594;28;20032;-78
2023/09/12 06:18:48;;;;;;;6.88;4.20;;;;;;;;;;5062719;28;20027;-78
2023/09/12 06:21:14;;;;;;;8.32;4.32;;;;;;;;;;5064634;28;20520;-78
2023/09/12 06:23:39;;;;;;;8.55;4.45;;;;;;;;;;5067017;28;20044;-78
2023/09/12 06:26:04;;;;;;;5.93;3.88;;;;;;;;;;5046604;28;20024;-78
2023/09/12 06:28:31;;;;;;;7.75;3.92;;;;;;;;;;5070390;28;20060;-78
2023/09/12 06:30:59;;;;;;;5.70;4.05;;;;;;;;;;5068237;28;20101;-78
2023/09/12 06:33:26;;;;;;;9.82;4.65;;;;;;;;;;5052988;28;20044;-78
2023/09/12 06:35:52;;;;;;;8.30;4.53;;;;;;;;;;5067612;28;20059;-78
2023/09/12 06:38:19;;;;;;;5.72;4.18;;;;;;;;;;5067308;28;20017;-78
2023/09/12 06:40:44;;;;;;;6.43;3.95;;;;;;;;;;5071591;28;20474;-78
2023/09/12 06:43:10;;;;;;;6.75;3.75;;;;;;;;;;5071870;28;20031;-78
2023/09/12 06:45:37;;;;;;;6.40;4.25;;;;;;;;;;5069693;28;20028;-79
2023/09/12 06:48:05;;;;;;;7.20;4.30;;;;;;;;;;5064265;28;20021;-78
2023/09/12 06:50:30;;;;;;;7.18;4.32;;;;;;;;;;5051185;28;20036;-78
2023/09/12 06:52:56;;;;;;;10.55;4.68;;;;;;;;;;5071362;28;20016;-78
2023/09/12 06:55:21;;;;;;;8.50;4.70;;;;;;;;;;5071917;28;20016;-78
2023/09/12 06:57:47;;;;;;;11.13;4.25;;;;;;;;;;5071829;28;20021;-78
2023/09/12 07:00:13;;;;;;;9.18;4.32;;;;;;;;;;5068569;28;20238;-79
2023/09/12 07:02:38;;;;;;;8.45;4.50;;;;;;;;;;5073482;28;20027;-78
2023/09/12 07:05:04;;;;;;;10.88;4.45;;;;;;;;;;5072440;28;20032;-78
2023/09/12 07:07:30;;;;;;;7.07;4.70;;;;;;;;;;5055958;28;20012;-78
2023/09/12 07:09:56;;;;;;;9.10;5.05;;;;;;;;;;5067232;28;20017;-78
2023/09/12 07:12:21;;;;;;;9.73;4.35;;;;;;;;;;5053562;28;20035;-80
2023/09/12 07:14:46;;;;;;;9.70;4.80;;;;;;;;;;5056050;28;20028;-78
2023/09/12 07:17:12;;;;;;;8.40;4.80;;;;;;;;;;5070220;28;20023;-80
2023/09/12 07:19:37;;;;;;;10.77;5.20;;;;;;;;;;5052007;28;20352;-80
2023/09/12 07:22:03;;;;;;;7.28;4.63;;;;;;;;;;5065401;28;20032;-80
2023/09/12 07:24:28;;;;;;;11.68;4.63;;;;;;;;;;5067997;28;20477;-80
2023/09/12 07:26:54;;;;;;;5.63;4.65;;;;;;;;;;5055414;28;20025;-80
2023/09/12 07:29:19;;;;;;;6.35;4.18;;;;;;;;;;5074570;28;20020;-80
2023/09/12 07:31:44;;;;;;;8.40;4.47;;;;;;;;;;5067923;28;20021;-80
2023/09/12 07:34:11;;;;;;;8.57;5.13;;;;;;;;;;5065165;28;20025;-80
2023/09/12 07:36:37;;;;;;;7.68;4.30;;;;;;;;;;5072936;28;20020;-79
2023/09/12 07:39:03;;;;;;;10.35;4.45;;;;;;;;;;5050666;28;20021;-79
2023/09/12 07:41:29;;;;;;;7.07;4.47;;;;;;;;;;5071307;28;20053;-80
2023/09/12 07:43:55;;;;;;;8.50;4.82;;;;;;;;;;5074152;28;20039;-80
2023/09/12 07:46:20;;;;;;;12.68;5.28;;;;;;;;;;5058428;28;20028;-80
2023/09/12 07:48:46;;;;;;;12.18;5.38;;;;;;;;;;5074411;28;20028;-80
2023/09/12 07:51:14;;;;;;;8.93;4.82;;;;;;;;;;5076667;28;20069;-80
2023/09/12 07:53:39;;;;;;;9.00;4.88;;;;;;;;;;5070953;28;20472;-80
2023/09/12 07:56:04;;;;;;;12.15;5.00;;;;;;;;;;5072449;28;20021;-80
2023/09/12 07:58:30;;;;;;;7.68;4.32;;;;;;;;;;5054052;28;20035;-80
2023/09/12 08:00:55;;;;;;;6.82;4.85;;;;;;;;;;5072322;28;20028;-80
2023/09/12 08:03:20;;;;;;;10.18;5.10;;;;;;;;;;5070574;28;20025;-80
2023/09/12 08:05:55;;;;;;;10.63;5.18;;;;;;;;;;5073273;28;20141;-80
2023/09/12 08:08:21;;;;;;;8.82;4.65;;;;;;;;;;5043353;28;20023;-80
2023/09/12 08:10:46;;;;;;;8.10;5.07;;;;;;;;;;5068868;28;20458;-80
2023/09/12 08:13:11;;;;;;;9.30;5.38;;;;;;;;;;5054079;28;20016;-80
2023/09/12 08:15:37;;;;;;;6.38;4.10;;;;;;;;;;5071395;28;20147;-80
2023/09/12 08:18:02;;;;;;;6.50;4.57;;;;;;;;;;5056950;28;20053;-80
2023/09/12 08:20:27;;;;;;;9.63;4.75;;;;;;;;;;5057325;28;20103;-80
2023/09/12 08:22:53;;;;;;;8.20;5.38;;;;;;;;;;5056128;28;20060;-80
2023/09/12 08:25:18;;;;;;;9.65;4.75;;;;;;;;;;5051739;28;20047;-80
2023/09/12 08:27:44;;;;;;;15.90;5.50;;;;;;;;;;5072883;28;20029;-80
2023/09/12 08:30:11;;;;;;;10.38;4.60;;;;;;;;;;5065920;28;20025;-82
2023/09/12 08:32:39;;;;;;;9.60;5.22;;;;;;;;;;5044577;28;20026;-80
2023/09/12 08:35:05;;;;;;;9.88;5.10;;;;;;;;;;5049355;28;20012;-80
2023/09/12 08:37:30;;;;;;;8.45;5.03;;;;;;;;;;5056131;28;20016;-80
2023/09/12 08:39:58;;;;;;;8.38;4.63;;;;;;;;;;5054644;28;20059;-80
2023/09/12 08:42:27;;;;;;;8.20;4.78;;;;;;;;;;5065838;28;20086;-80
2023/09/12 08:44:53;;;;;;;11.85;4.43;;;;;;;;;;5052305;28;20021;-80
2023/09/12 08:47:22;;;;;;;8.35;4.93;;;;;;;;;;5065608;28;20035;-80
2023/09/12 08:49:48;;;;;;;6.13;4.47;;;;;;;;;;5069785;28;20039;-81
2023/09/12 08:52:13;;;;;;;12.88;5.10;;;;;;;;;;5049359;28;20119;-81
2023/09/12 08:54:38;;;;;;;7.85;4.72;;;;;;;;;;5074710;28;20055;-81
2023/09/12 08:57:05;;;;;;;10.73;4.75;;;;;;;;;;5065680;28;20103;-81
2023/09/12 08:59:33;;;;;;;6.40;4.35;;;;;;;;;;5057907;28;20020;-81
2023/09/12 09:01:59;;;;;;;5.90;3.92;;;;;;;;;;5067057;28;20030;-81
2023/09/12 09:04:28;;;;;;;7.82;4.53;;;;;;;;;;5075598;28;20029;-81
2023/09/12 09:06:55;;;;;;;5.70;4.32;;;;;;;;;;5050675;28;20025;-81
2023/09/12 09:09:21;;;;;;;6.70;4.63;;;;;;;;;;5075693;28;20506;-81
2023/09/12 09:11:46;;;;;;;7.75;4.85;;;;;;;;;;5075058;28;20035;-82
2023/09/12 09:14:11;;;;;;;8.30;4.90;;;;;;;;;;5065074;28;20056;-81
2023/09/12 09:16:37;;;;;;;9.15;4.38;;;;;;;;;;5074565;28;20016;-81
2023/09/12 09:19:09;;;;;;;8.38;4.75;;;;;;;;;;5063704;28;20487;-81
2023/09/12 09:21:35;;;;;;;8.75;4.03;;;;;;;;;;5073590;28;20054;-81
2023/09/12 09:24:13;;;;;;;6.63;4.10;;;;;;;;;;5048988;28;20028;-81
2023/09/12 09:26:53;;;;;;;4.72;3.55;;;;;;;;;;5056307;28;20020;-81
2023/09/12 09:29:19;;;;;;;8.90;4.30;;;;;;;;;;5074644;28;20016;-81
2023/09/12 09:31:47;;;;;;;8.68;4.22;;;;;;;;;;5056023;28;20028;-81
2023/09/12 09:34:21;;;;;;;8.88;4.20;;;;;;;;;;5057466;28;20027;-81
2023/09/12 09:36:48;;;;;;;5.43;4.63;;;;;;;;;;5056984;28;20021;-81
2023/09/12 09:39:15;;;;;;;4.95;3.70;;;;;;;;;;5074317;28;20033;-81
2023/09/12 09:41:41;;;;;;;5.90;4.10;;;;;;;;;;5055877;28;20032;-81
2023/09/12 09:44:09;;;;;;;6.90;4.05;;;;;;;;;;5070155;28;20021;-81
2023/09/12 09:46:36;;;;;;;7.18;4.00;;;;;;;;;;5062629;28;20021;-81
2023/09/12 09:49:02;;;;;;;6.63;3.60;;;;;;;;;;5062113;28;20029;-81
2023/09/12 09:51:30;;;;;;;6.10;4.15;;;;;;;;;;5070900;28;20027;-81
2023/09/12 09:53:58;;;;;;;6.38;3.55;;;;;;;;;;5048711;28;20028;-82
2023/09/12 09:56:25;;;;;;;8.80;4.07;;;;;;;;;;5074805;28;20096;-81
2023/09/12 09:58:52;;;;;;;6.10;3.83;;;;;;;;;;5075511;28;20025;-82
2023/09/12 10:01:21;;;;;;;7.95;3.90;;;;;;;;;;5056477;28;20025;-81
2023/09/12 10:03:47;;;;;;;5.20;3.80;;;;;;;;;;5056882;28;20170;-81
2023/09/12 10:06:16;;;;;;;6.22;3.83;;;;;;;;;;5074869;28;20586;-81
2023/09/12 10:08:44;;;;;;;6.22;3.95;;;;;;;;;;5055293;28;20112;-82
2023/09/12 10:11:10;;;;;;;8.00;3.70;;;;;;;;;;5057028;28;20092;-81
2023/09/12 10:13:37;;;;;;;5.72;3.50;;;;;;;;;;5053998;28;20413;-82
2023/09/12 10:16:04;;;;;;;5.20;3.58;;;;;;;;;;5066505;28;20021;-82
2023/09/12 10:18:35;;;;;;;8.45;3.90;;;;;;;;;;5074448;28;20020;-82
2023/09/12 10:21:10;;;;;;;7.30;3.60;;;;;;;;;;5076611;28;20626;-83
2023/09/12 10:23:44;;;;;;;5.72;3.35;;;;;;;;;;5048501;28;20543;-83
2023/09/12 10:26:12;;;;;;;3.95;3.33;;;;;;;;;;5061996;28;20027;-83
2023/09/12 10:28:40;;;;;;;8.38;3.60;;;;;;;;;;5069300;28;20501;-83
2023/09/12 10:31:08;;;;;;;4.20;3.15;;;;;;;;;;5068975;28;20036;-83
2023/09/12 10:33:34;;;;;;;6.15;3.70;;;;;;;;;;5077983;28;20513;-83
2023/09/12 10:36:05;;;;;;;5.28;3.63;;;;;;;;;;5052449;28;20031;-84
2023/09/12 10:38:32;;;;;;;6.53;4.03;;;;;;;;;;5077695;28;20021;-83
2023/09/12 10:41:00;;;;;;;5.20;3.42;;;;;;;;;;5078425;28;20062;-83
2023/09/12 10:43:26;;;;;;;5.85;4.07;;;;;;;;;;5078094;28;20498;-84
2023/09/12 10:45:52;;;;;;;8.98;3.83;;;;;;;;;;5069100;28;20033;-84
2023/09/12 10:48:17;;;;;;;5.70;3.28;;;;;;;;;;5061557;28;20153;-84
2023/09/12 10:50:44;;;;;;;6.07;3.40;;;;;;;;;;5077528;28;20101;-84
2023/09/12 10:53:15;;;;;;;4.40;3.22;;;;;;;;;;5056734;28;20411;-83
2023/09/12 10:55:58;;;;;;;6.03;3.40;;;;;;;;;;5066214;28;20139;-83
2023/09/12 10:58:24;;;;;;;4.35;3.15;;;;;;;;;;5056529;28;20059;-83
2023/09/12 11:01:22;;;;;;;6.82;3.67;;;;;;;;;;5078939;28;20513;-84
2023/09/12 11:03:48;;;;;;;6.60;3.70;;;;;;;;;;5059936;28;20033;-84
2023/09/12 11:06:22;;;;;;;5.15;3.10;;;;;;;;;;5072220;28;20406;-83
2023/09/12 11:09:22;;;;;;;6.22;3.25;;;;;;;;;;5068548;28;20505;-84
2023/09/12 11:11:53;;;;;;;4.23;3.23;;;;;;;;;;5059465;28;20032;-83
2023/09/12 11:14:19;;;;;;;5.82;3.03;;;;;;;;;;5063266;28;20028;-83
2023/09/12 11:17:04;;;;;;;5.60;3.25;;;;;;;;;;5057247;28;20024;-83
2023/09/12 11:19:44;;;;;;;3.97;2.97;;;;;;;;;;5046549;28;20596;-83
2023/09/12 11:22:21;;;;;;;5.53;3.10;;;;;;;;;;5050271;28;20555;-82
2023/09/12 11:24:47;;;;;;;4.82;3.20;;;;;;;;;;5059653;28;20031;-83
2023/09/12 11:27:12;;;;;;;8.43;3.85;;;;;;;;;;5072891;28;20025;-83
2023/09/12 11:29:39;;;;;;;5.68;3.40;;;;;;;;;;5059345;28;20048;-83
2023/09/12 11:32:06;;;;;;;7.68;3.15;;;;;;;;;;5059288;28;20074;-82
2023/09/12 11:34:42;;;;;;;5.75;3.22;;;;;;;;;;5051154;28;20017;-82
2023/09/12 11:37:08;;;;;;;5.78;3.38;;;;;;;;;;5051388;28;20393;-83
2023/09/12 11:39:35;;;;;;;6.75;3.75;;;;;;;;;;5056969;28;20088;-83
2023/09/12 11:42:01;;;;;;;5.22;3.47;;;;;;;;;;5070043;28;20020;-82
2023/09/12 11:44:28;;;;;;;4.72;3.03;;;;;;;;;;5052402;28;20017;-83
2023/09/12 11:46:54;;;;;;;10.10;3.50;;;;;;;;;;5049046;28;20032;-83
2023/09/12 11:49:20;;;;;;;5.60;3.28;;;;;;;;;;5056604;28;20048;-82
2023/09/12 11:51:50;;;;;;;5.43;3.55;;;;;;;;;;5056042;28;20033;-82
2023/09/12 11:54:20;;;;;;;5.55;3.90;;;;;;;;;;5062365;28;20035;-83
2023/09/12 11:56:48;;;;;;;4.07;3.17;;;;;;;;;;5050358;28;20029;-82
2023/09/12 11:59:14;;;;;;;6.13;3.78;;;;;;;;;;5069815;28;20032;-82
2023/09/12 12:01:40;;;;;;;6.75;4.07;;;;;;;;;;5046789;28;20025;-82
2023/09/12 12:04:06;;;;;;;7.57;3.92;;;;;;;;;;5050188;28;20063;-82
2023/09/12 12:06:32;;;;;;;6.43;4.03;;;;;;;;;;5067192;28;20107;-82
2023/09/12 12:08:58;;;;;;;5.78;3.67;;;;;;;;;;5050649;28;20052;-82
2023/09/12 12:11:28;;;;;;;6.53;4.05;;;;;;;;;;5073536;28;20044;-82
2023/09/12 12:13:53;;;;;;;6.07;3.90;;;;;;;;;;5058866;28;20435;-82
2023/09/12 12:16:19;;;;;;;4.55;3.30;;;;;;;;;;5076026;28;20507;-82
2023/09/12 12:18:44;;;;;;;4.53;3.25;;;;;;;;;;5074211;28;20056;-82
2023/09/12 12:21:10;;;;;;;4.07;3.10;;;;;;;;;;5077357;28;20048;-82
2023/09/12 12:23:35;;;;;;;3.88;3.10;;;;;;;;;;5068448;28;20390;-82
2023/09/12 12:26:07;;;;;;;8.63;3.53;;;;;;;;;;5075125;28;20174;-82
2023/09/12 12:28:34;;;;;;;5.10;3.45;;;;;;;;;;5076762;28;20016;-82
2023/09/12 12:31:00;;;;;;;6.70;4.38;;;;;;;;;;5076155;28;20025;-82
2023/09/12 12:33:25;;;;;;;8.65;4.18;;;;;;;;;;5076321;28;20023;-82
2023/09/12 12:36:00;;;;;;;4.80;3.63;;;;;;;;;;5074800;28;20052;-82
2023/09/12 12:38:25;;;;;;;6.25;3.58;;;;;;;;;;5050847;28;20020;-82
2023/09/12 12:40:50;;;;;;;6.72;3.20;;;;;;;;;;5069166;28;20032;-81
2023/09/12 12:43:18;;;;;;;6.68;3.53;;;;;;;;;;5070884;28;20104;-82
2023/09/12 12:45:58;;;;;;;6.40;3.20;;;;;;;;;;5051656;28;20029;-82
2023/09/12 12:48:34;;;;;;;6.32;3.97;;;;;;;;;;5069238;28;20016;-82
2023/09/12 12:51:11;;;;;;;7.57;3.92;;;;;;;;;;5051008;28;20078;-82
2023/09/12 12:53:41;;;;;;;6.25;3.30;;;;;;;;;;5069932;28;20028;-81
2023/09/12 12:56:07;;;;;;;5.70;3.40;;;;;;;;;;5051542;28;20017;-82
2023/09/12 12:58:33;;;;;;;6.40;3.50;;;;;;;;;;5063893;28;20048;-82
2023/09/12 13:00:58;;;;;;;6.55;3.47;;;;;;;;;;5074163;28;21233;-82
2023/09/12 13:03:23;;;;;;;4.30;3.38;;;;;;;;;;5057267;28;20127;-82
2023/09/12 13:05:49;;;;;;;6.05;3.80;;;;;;;;;;5071032;28;20088;-82
2023/09/12 13:08:14;;;;;;;4.18;3.42;;;;;;;;;;5049601;28;20064;-82
2023/09/12 13:10:42;;;;;;;8.18;3.85;;;;;;;;;;5056284;28;20021;-82
2023/09/12 13:13:07;;;;;;;12.15;3.47;;;;;;;;;;5073351;28;20025;-81
2023/09/12 13:15:33;;;;;;;5.05;3.53;;;;;;;;;;5053994;28;20024;-82
2023/09/12 13:17:58;;;;;;;7.72;3.60;;;;;;;;;;5055964;28;20029;-82
2023/09/12 13:20:23;;;;;;;5.10;3.45;;;;;;;;;;5055984;28;20565;-82
2023/09/12 13:22:49;;;;;;;3.78;3.35;;;;;;;;;;5071461;28;20032;-82
2023/09/12 13:25:14;;;;;;;4.85;3.28;;;;;;;;;;5076032;28;20450;-82
2023/09/12 13:27:40;;;;;;;6.03;3.47;;;;;;;;;;5073650;28;20470;-82
2023/09/12 13:30:06;;;;;;;7.18;3.17;;;;;;;;;;5068998;28;20029;-82
2023/09/12 13:32:33;;;;;;;4.35;3.60;;;;;;;;;;5072842;28;20070;-81
2023/09/12 13:34:58;;;;;;;6.10;3.72;;;;;;;;;;5066398;28;20047;-82
2023/09/12 13:37:23;;;;;;;5.03;2.70;;;;;;;;;;5051376;28;20505;-82
2023/09/12 13:39:49;;;;;;;4.45;3.22;;;;;;;;;;5064051;28;20027;-81
2023/09/12 13:42:19;;;;;;;4.53;3.20;;;;;;;;;;5067333;28;20029;-81
2023/09/12 13:44:48;;;;;;;4.65;3.60;;;;;;;;;;5070075;28;20030;-82
2023/09/12 13:47:13;;;;;;;5.03;3.60;;;;;;;;;;5053427;28;20083;-81
2023/09/12 13:49:39;;;;;;;4.28;3.20;;;;;;;;;;5050087;28;20474;-81
2023/09/12 13:52:04;;;;;;;4.25;3.38;;;;;;;;;;5056445;28;20039;-81
2023/09/12 13:54:29;;;;;;;6.80;3.42;;;;;;;;;;5055022;28;20082;-81
2023/09/12 13:56:55;;;;;;;4.40;3.03;;;;;;;;;;5050859;28;20028;-82
2023/09/12 13:59:20;;;;;;;4.80;3.05;;;;;;;;;;5056667;28;20016;-81
2023/09/12 14:01:46;;;;;;;4.45;3.08;;;;;;;;;;5048974;28;20017;-81
2023/09/12 14:04:13;;;;;;;5.60;2.90;;;;;;;;;;5054566;28;20021;-82
2023/09/12 14:06:38;;;;;;;5.88;3.50;;;;;;;;;;5055808;28;20467;-82
2023/09/12 14:09:04;;;;;;;4.45;2.97;;;;;;;;;;5065435;28;20036;-82
2023/09/12 14:11:29;;;;;;;5.45;3.17;;;;;;;;;;5072794;28;20020;-81
2023/09/12 14:13:55;;;;;;;7.00;3.20;;;;;;;;;;5076962;28;20031;-81
2023/09/12 14:16:20;;;;;;;5.30;3.40;;;;;;;;;;5077265;28;20020;-81
2023/09/12 14:18:45;;;;;;;5.05;3.00;;;;;;;;;;5052049;28;20149;-82
2023/09/12 14:21:10;;;;;;;5.28;3.60;;;;;;;;;;5079740;28;20509;-81
2023/09/12 14:23:36;;;;;;;5.10;3.50;;;;;;;;;;5077239;28;20024;-81
2023/09/12 14:26:01;;;;;;;7.78;3.45;;;;;;;;;;5072734;28;20383;-82
2023/09/12 14:28:28;;;;;;;9.43;3.20;;;;;;;;;;5074590;28;20092;-81
2023/09/12 14:30:53;;;;;;;5.03;3.60;;;;;;;;;;5057824;28;20021;-81
2023/09/12 14:33:19;;;;;;;5.45;3.55;;;;;;;;;;5072529;28;20056;-82
2023/09/12 14:35:44;;;;;;;7.10;3.30;;;;;;;;;;5076653;28;20028;-81
2023/09/12 14:38:10;;;;;;;4.80;3.80;;;;;;;;;;5072400;28;20043;-82